sensor_id;sensor_type;location;lat;lon;timestamp;pressure;altitude;pressure_sealevel;temperature;humidity
61528;BME280;47395;42.032;-8.634;2023-05-15T00:01:17;101595.88;;;15.66;75.93
61528;BME280;47395;42.032;-8.634;2023-05-15T00:03:18;101597.13;;;15.59;75.79
61528;BME280;47395;42.032;-8.634;2023-05-15T00:05:19;101592.88;;;15.57;75.54
61528;BME280;47395;42.032;-8.634;2023-05-15T00:07:19;101596.03;;;15.47;75.19
61528;BME280;47395;42.032;-8.634;2023-05-15T00:09:20;101599.56;;;15.48;75.52
61528;BME280;47395;42.032;-8.634;2023-05-15T00:11:21;101596.03;;;15.47;75.41
61528;BME280;47395;42.032;-8.634;2023-05-15T00:13:22;101591.00;;;15.43;75.63
61528;BME280;47395;42.032;-8.634;2023-05-15T00:15:23;101588.25;;;15.44;75.52
61528;BME280;47395;42.032;-8.634;2023-05-15T00:17:24;101593.91;;;15.38;75.20
61528;BME280;47395;42.032;-8.634;2023-05-15T00:19:25;101595.78;;;15.36;75.67
61528;BME280;47395;42.032;-8.634;2023-05-15T00:21:26;101598.53;;;15.34;75.67
61528;BME280;47395;42.032;-8.634;2023-05-15T00:23:27;101598.53;;;15.34;75.66
61528;BME280;47395;42.032;-8.634;2023-05-15T00:25:28;101599.56;;;15.32;75.71
61528;BME280;47395;42.032;-8.634;2023-05-15T00:27:29;101598.78;;;15.30;75.80
61528;BME280;47395;42.032;-8.634;2023-05-15T00:29:29;101603.63;;;15.21;75.41
61528;BME280;47395;42.032;-8.634;2023-05-15T00:31:30;101609.72;;;15.23;75.87
61528;BME280;47395;42.032;-8.634;2023-05-15T00:33:32;101605.25;;;15.24;75.43
61528;BME280;47395;42.032;-8.634;2023-05-15T00:35:33;101595.59;;;15.23;75.59
61528;BME280;47395;42.032;-8.634;2023-05-15T00:37:34;101594.50;;;15.27;75.56
61528;BME280;47395;42.032;-8.634;2023-05-15T00:39:37;101597.22;;;15.25;75.54
61528;BME280;47395;42.032;-8.634;2023-05-15T00:41:40;101600.50;;;15.31;75.43
61528;BME280;47395;42.032;-8.634;2023-05-15T00:43:42;101608.19;;;15.35;74.99
61528;BME280;47395;42.032;-8.634;2023-05-15T00:45:43;101611.66;;;15.37;74.88
61528;BME280;47395;42.032;-8.634;2023-05-15T00:47:46;101614.03;;;15.42;74.74
61528;BME280;47395;42.032;-8.634;2023-05-15T00:49:48;101611.13;;;15.47;74.66
61528;BME280;47395;42.032;-8.634;2023-05-15T00:51:49;101608.91;;;15.55;74.88
61528;BME280;47395;42.032;-8.634;2023-05-15T00:53:50;101607.59;;;15.62;74.47
61528;BME280;47395;42.032;-8.634;2023-05-15T00:55:56;101606.31;;;15.70;74.04
61528;BME280;47395;42.032;-8.634;2023-05-15T00:57:59;101603.38;;;15.74;73.61
61528;BME280;47395;42.032;-8.634;2023-05-15T01:00:01;101609.56;;;15.75;73.97
61528;BME280;47395;42.032;-8.634;2023-05-15T01:02:04;101608.97;;;15.70;73.71
61528;BME280;47395;42.032;-8.634;2023-05-15T01:04:05;101600.41;;;15.81;73.61
61528;BME280;47395;42.032;-8.634;2023-05-15T01:06:06;101585.50;;;15.78;73.52
61528;BME280;47395;42.032;-8.634;2023-05-15T01:08:26;101584.63;;;15.77;73.57
61528;BME280;47395;42.032;-8.634;2023-05-15T01:10:27;101575.72;;;15.78;73.68
61528;BME280;47395;42.032;-8.634;2023-05-15T01:12:29;101591.06;;;15.73;73.66
61528;BME280;47395;42.032;-8.634;2023-05-15T01:14:31;101585.91;;;15.70;73.73
61528;BME280;47395;42.032;-8.634;2023-05-15T01:16:34;101577.09;;;15.70;73.66
61528;BME280;47395;42.032;-8.634;2023-05-15T01:18:36;101578.91;;;15.69;73.79
61528;BME280;47395;42.032;-8.634;2023-05-15T01:28:31;101570.00;;;15.54;74.38
61528;BME280;47395;42.032;-8.634;2023-05-15T01:30:35;101567.69;;;15.48;75.06
61528;BME280;47395;42.032;-8.634;2023-05-15T01:32:46;101558.34;;;15.57;74.38
61528;BME280;47395;42.032;-8.634;2023-05-15T01:35:12;101553.66;;;15.62;74.26
61528;BME280;47395;42.032;-8.634;2023-05-15T01:37:18;101545.06;;;15.57;73.84
61528;BME280;47395;42.032;-8.634;2023-05-15T01:39:23;101551.75;;;15.64;73.94
61528;BME280;47395;42.032;-8.634;2023-05-15T01:41:40;101557.81;;;15.66;73.88
61528;BME280;47395;42.032;-8.634;2023-05-15T01:43:44;101558.75;;;15.65;73.98
61528;BME280;47395;42.032;-8.634;2023-05-15T01:45:47;101560.47;;;15.66;73.86
61528;BME280;47395;42.032;-8.634;2023-05-15T01:47:49;101553.66;;;15.62;74.01
61528;BME280;47395;42.032;-8.634;2023-05-15T01:49:52;101551.09;;;15.44;74.57
61528;BME280;47395;42.032;-8.634;2023-05-15T01:52:15;101547.47;;;15.45;74.85
61528;BME280;47395;42.032;-8.634;2023-05-15T01:54:18;101538.66;;;15.45;74.80
61528;BME280;47395;42.032;-8.634;2023-05-15T01:56:20;101538.47;;;15.48;74.98
61528;BME280;47395;42.032;-8.634;2023-05-15T01:58:24;101535.91;;;15.46;75.12
61528;BME280;47395;42.032;-8.634;2023-05-15T02:00:26;101542.84;;;15.49;75.39
61528;BME280;47395;42.032;-8.634;2023-05-15T02:02:28;101541.66;;;15.38;75.62
61528;BME280;47395;42.032;-8.634;2023-05-15T02:04:29;101534.00;;;15.48;75.39
61528;BME280;47395;42.032;-8.634;2023-05-15T02:06:31;101532.81;;;15.54;75.72
61528;BME280;47395;42.032;-8.634;2023-05-15T02:08:33;101531.16;;;15.68;75.26
61528;BME280;47395;42.032;-8.634;2023-05-15T02:10:34;101528.84;;;15.77;75.13
61528;BME280;47395;42.032;-8.634;2023-05-15T02:12:36;101533.28;;;15.77;74.82
61528;BME280;47395;42.032;-8.634;2023-05-15T02:14:38;101520.31;;;15.87;74.16
61528;BME280;47395;42.032;-8.634;2023-05-15T02:16:40;101518.41;;;15.58;74.61
61528;BME280;47395;42.032;-8.634;2023-05-15T02:18:41;101519.69;;;15.67;74.75
61528;BME280;47395;42.032;-8.634;2023-05-15T02:20:42;101508.06;;;15.53;74.54
61528;BME280;47395;42.032;-8.634;2023-05-15T02:22:43;101506.59;;;15.64;74.68
61528;BME280;47395;42.032;-8.634;2023-05-15T02:24:44;101498.38;;;15.52;74.67
61528;BME280;47395;42.032;-8.634;2023-05-15T02:27:21;101505.22;;;15.57;74.72
61528;BME280;47395;42.032;-8.634;2023-05-15T02:32:30;101502.31;;;15.61;74.29
61528;BME280;47395;42.032;-8.634;2023-05-15T02:34:53;101510.09;;;15.64;74.17
61528;BME280;47395;42.032;-8.634;2023-05-15T02:36:57;101513.81;;;15.62;74.31
61528;BME280;47395;42.032;-8.634;2023-05-15T02:39:00;101518.50;;;15.57;74.43
61528;BME280;47395;42.032;-8.634;2023-05-15T02:41:02;101523.91;;;15.39;75.30
61528;BME280;47395;42.032;-8.634;2023-05-15T02:43:07;101520.06;;;15.29;75.81
61528;BME280;47395;42.032;-8.634;2023-05-15T02:45:10;101523.41;;;15.16;76.43
61528;BME280;47395;42.032;-8.634;2023-05-15T02:47:11;101518.09;;;15.16;76.49
61528;BME280;47395;42.032;-8.634;2023-05-15T02:49:14;101518.28;;;15.13;76.12
61528;BME280;47395;42.032;-8.634;2023-05-15T02:51:15;101517.59;;;15.09;76.55
61528;BME280;47395;42.032;-8.634;2023-05-15T02:53:16;101525.97;;;15.01;77.17
61528;BME280;47395;42.032;-8.634;2023-05-15T02:55:17;101532.16;;;15.02;76.57
61528;BME280;47395;42.032;-8.634;2023-05-15T02:57:18;101536.50;;;15.03;76.75
61528;BME280;47395;42.032;-8.634;2023-05-15T02:59:18;101535.38;;;14.91;76.83
61528;BME280;47395;42.032;-8.634;2023-05-15T03:01:19;101546.47;;;14.82;77.25
61528;BME280;47395;42.032;-8.634;2023-05-15T03:03:20;101542.63;;;14.87;77.30
61528;BME280;47395;42.032;-8.634;2023-05-15T03:05:21;101544.78;;;14.81;77.03
61528;BME280;47395;42.032;-8.634;2023-05-15T03:07:22;101548.53;;;14.77;77.28
61528;BME280;47395;42.032;-8.634;2023-05-15T03:09:22;101545.88;;;14.77;77.37
61528;BME280;47395;42.032;-8.634;2023-05-15T03:11:24;101548.53;;;14.77;77.09
61528;BME280;47395;42.032;-8.634;2023-05-15T03:13:25;101543.25;;;14.75;77.42
61528;BME280;47395;42.032;-8.634;2023-05-15T03:15:26;101546.03;;;14.73;77.50
61528;BME280;47395;42.032;-8.634;2023-05-15T03:17:27;101542.66;;;14.70;77.56
61528;BME280;47395;42.032;-8.634;2023-05-15T03:19:28;101541.75;;;14.71;77.75
61528;BME280;47395;42.032;-8.634;2023-05-15T03:21:28;101547.34;;;14.65;77.71
61528;BME280;47395;42.032;-8.634;2023-05-15T03:23:29;101545.50;;;14.67;77.93
61528;BME280;47395;42.032;-8.634;2023-05-15T03:25:31;101546.25;;;14.69;77.91
61528;BME280;47395;42.032;-8.634;2023-05-15T03:27:32;101545.81;;;14.60;77.69
61528;BME280;47395;42.032;-8.634;2023-05-15T03:29:33;101537.56;;;14.49;78.00
61528;BME280;47395;42.032;-8.634;2023-05-15T03:31:33;101534.81;;;14.51;78.10
61528;BME280;47395;42.032;-8.634;2023-05-15T03:33:34;101528.41;;;14.55;78.04
61528;BME280;47395;42.032;-8.634;2023-05-15T03:35:35;101531.94;;;14.55;78.10
61528;BME280;47395;42.032;-8.634;2023-05-15T03:37:36;101534.50;;;14.57;77.96
61528;BME280;47395;42.032;-8.634;2023-05-15T03:39:37;101534.44;;;14.58;78.02
61528;BME280;47395;42.032;-8.634;2023-05-15T03:41:38;101545.13;;;14.57;78.00
61528;BME280;47395;42.032;-8.634;2023-05-15T03:43:39;101531.84;;;14.57;77.67
61528;BME280;47395;42.032;-8.634;2023-05-15T03:45:40;101545.25;;;14.54;77.54
61528;BME280;47395;42.032;-8.634;2023-05-15T03:47:40;101546.81;;;14.58;77.79
61528;BME280;47395;42.032;-8.634;2023-05-15T03:49:42;101542.19;;;14.61;77.58
61528;BME280;47395;42.032;-8.634;2023-05-15T03:51:43;101541.66;;;14.55;77.75
61528;BME280;47395;42.032;-8.634;2023-05-15T03:53:44;101535.53;;;14.54;77.66
61528;BME280;47395;42.032;-8.634;2023-05-15T03:55:45;101536.22;;;14.58;77.71
61528;BME280;47395;42.032;-8.634;2023-05-15T03:57:45;101533.72;;;14.55;77.91
61528;BME280;47395;42.032;-8.634;2023-05-15T03:59:46;101532.09;;;14.52;77.09
61528;BME280;47395;42.032;-8.634;2023-05-15T04:04:52;101535.53;;;14.54;77.16
61528;BME280;47395;42.032;-8.634;2023-05-15T04:06:53;101533.28;;;14.46;77.02
61528;BME280;47395;42.032;-8.634;2023-05-15T04:08:54;101543.44;;;14.38;77.51
61528;BME280;47395;42.032;-8.634;2023-05-15T04:10:55;101534.06;;;14.31;77.81
61528;BME280;47395;42.032;-8.634;2023-05-15T04:12:55;101524.50;;;14.28;77.93
61528;BME280;47395;42.032;-8.634;2023-05-15T04:14:58;101519.13;;;14.30;77.83
61528;BME280;47395;42.032;-8.634;2023-05-15T04:16:59;101522.44;;;14.33;77.67
61528;BME280;47395;42.032;-8.634;2023-05-15T04:19:00;101522.22;;;14.38;77.91
61528;BME280;47395;42.032;-8.634;2023-05-15T04:21:01;101523.59;;;14.45;77.36
61528;BME280;47395;42.032;-8.634;2023-05-15T04:23:03;101523.28;;;14.52;76.99
61528;BME280;47395;42.032;-8.634;2023-05-15T04:25:05;101522.72;;;14.62;76.48
61528;BME280;47395;42.032;-8.634;2023-05-15T04:27:07;101525.13;;;14.67;76.45
61528;BME280;47395;42.032;-8.634;2023-05-15T04:29:08;101522.97;;;14.74;76.20
61528;BME280;47395;42.032;-8.634;2023-05-15T04:31:09;101514.63;;;14.82;75.77
61528;BME280;47395;42.032;-8.634;2023-05-15T04:33:10;101511.84;;;14.85;75.71
61528;BME280;47395;42.032;-8.634;2023-05-15T04:35:11;101506.44;;;14.86;75.86
61528;BME280;47395;42.032;-8.634;2023-05-15T04:37:14;101513.22;;;14.92;75.43
61528;BME280;47395;42.032;-8.634;2023-05-15T04:39:15;101513.81;;;14.97;75.37
61528;BME280;47395;42.032;-8.634;2023-05-15T04:41:15;101514.94;;;14.93;75.26
61528;BME280;47395;42.032;-8.634;2023-05-15T04:43:16;101508.66;;;14.94;75.15
61528;BME280;47395;42.032;-8.634;2023-05-15T04:45:17;101496.34;;;14.93;75.20
61528;BME280;47395;42.032;-8.634;2023-05-15T04:47:18;101498.94;;;14.95;75.25
61528;BME280;47395;42.032;-8.634;2023-05-15T04:49:19;101497.47;;;14.89;75.52
61528;BME280;47395;42.032;-8.634;2023-05-15T04:51:19;101504.41;;;14.92;75.44
61528;BME280;47395;42.032;-8.634;2023-05-15T04:53:20;101501.81;;;14.90;75.72
61528;BME280;47395;42.032;-8.634;2023-05-15T04:55:21;101504.47;;;14.90;75.83
61528;BME280;47395;42.032;-8.634;2023-05-15T04:57:22;101503.78;;;14.86;75.94
61528;BME280;47395;42.032;-8.634;2023-05-15T04:59:23;101501.56;;;14.95;75.66
61528;BME280;47395;42.032;-8.634;2023-05-15T05:01:28;101514.75;;;14.96;75.86
61528;BME280;47395;42.032;-8.634;2023-05-15T05:03:29;101502.59;;;15.08;75.46
61528;BME280;47395;42.032;-8.634;2023-05-15T05:05:29;101505.78;;;14.99;75.96
61528;BME280;47395;42.032;-8.634;2023-05-15T05:07:31;101513.81;;;14.97;75.82
61528;BME280;47395;42.032;-8.634;2023-05-15T05:09:32;101506.00;;;14.94;75.91
61528;BME280;47395;42.032;-8.634;2023-05-15T05:11:32;101516.38;;;14.99;76.20
61528;BME280;47395;42.032;-8.634;2023-05-15T05:13:33;101514.56;;;14.99;75.87
61528;BME280;47395;42.032;-8.634;2023-05-15T05:15:35;101503.44;;;14.93;76.00
61528;BME280;47395;42.032;-8.634;2023-05-15T05:17:36;101506.28;;;14.90;76.20
61528;BME280;47395;42.032;-8.634;2023-05-15T05:19:37;101504.81;;;14.84;76.22
61528;BME280;47395;42.032;-8.634;2023-05-15T05:21:38;101512.44;;;14.90;75.64
61528;BME280;47395;42.032;-8.634;2023-05-15T05:23:38;101513.53;;;14.86;76.10
61528;BME280;47395;42.032;-8.634;2023-05-15T05:25:39;101510.66;;;14.91;76.27
61528;BME280;47395;42.032;-8.634;2023-05-15T05:27:40;101504.16;;;14.96;75.77
61528;BME280;47395;42.032;-8.634;2023-05-15T05:29:41;101499.38;;;15.03;75.54
61528;BME280;47395;42.032;-8.634;2023-05-15T05:31:42;101502.78;;;15.05;75.40
61528;BME280;47395;42.032;-8.634;2023-05-15T05:33:43;101502.38;;;15.13;75.40
61528;BME280;47395;42.032;-8.634;2023-05-15T05:35:44;101501.16;;;15.19;75.12
61528;BME280;47395;42.032;-8.634;2023-05-15T05:37:44;101499.94;;;15.24;75.06
61528;BME280;47395;42.032;-8.634;2023-05-15T05:39:45;101507.66;;;15.29;74.88
61528;BME280;47395;42.032;-8.634;2023-05-15T05:41:46;101496.03;;;15.32;74.84
61528;BME280;47395;42.032;-8.634;2023-05-15T05:43:47;101505.69;;;15.33;74.88
61528;BME280;47395;42.032;-8.634;2023-05-15T05:45:47;101505.19;;;15.26;75.21
61528;BME280;47395;42.032;-8.634;2023-05-15T05:47:48;101507.16;;;15.22;75.40
61528;BME280;47395;42.032;-8.634;2023-05-15T05:49:49;101497.53;;;15.04;75.83
61528;BME280;47395;42.032;-8.634;2023-05-15T05:51:50;101502.00;;;14.87;77.02
61528;BME280;47395;42.032;-8.634;2023-05-15T05:53:50;101509.09;;;14.86;77.05
61528;BME280;47395;42.032;-8.634;2023-05-15T05:55:52;101504.91;;;14.82;77.67
61528;BME280;47395;42.032;-8.634;2023-05-15T05:57:54;101513.47;;;14.87;77.75
61528;BME280;47395;42.032;-8.634;2023-05-15T05:59:55;101525.63;;;14.92;77.94
61528;BME280;47395;42.032;-8.634;2023-05-15T06:01:58;101519.22;;;15.12;77.17
61528;BME280;47395;42.032;-8.634;2023-05-15T06:03:59;101513.38;;;15.21;76.59
61528;BME280;47395;42.032;-8.634;2023-05-15T06:06:00;101522.56;;;15.16;76.77
61528;BME280;47395;42.032;-8.634;2023-05-15T06:08:02;101523.50;;;15.14;76.71
61528;BME280;47395;42.032;-8.634;2023-05-15T06:10:04;101531.78;;;15.40;75.99
61528;BME280;47395;42.032;-8.634;2023-05-15T06:12:07;101532.72;;;15.56;75.49
61528;BME280;47395;42.032;-8.634;2023-05-15T06:14:09;101540.53;;;15.59;75.04
61528;BME280;47395;42.032;-8.634;2023-05-15T06:16:13;101539.41;;;15.63;74.42
61528;BME280;47395;42.032;-8.634;2023-05-15T06:18:15;101545.47;;;15.65;74.57
61528;BME280;47395;42.032;-8.634;2023-05-15T06:20:16;101552.28;;;15.85;73.51
61528;BME280;47395;42.032;-8.634;2023-05-15T06:22:17;101547.84;;;16.02;73.13
61528;BME280;47395;42.032;-8.634;2023-05-15T06:24:20;101543.31;;;16.18;72.02
61528;BME280;47395;42.032;-8.634;2023-05-15T06:26:22;101541.13;;;16.11;72.22
61528;BME280;47395;42.032;-8.634;2023-05-15T06:28:22;101536.78;;;16.24;72.00
61528;BME280;47395;42.032;-8.634;2023-05-15T06:30:24;101544.00;;;16.22;71.39
61528;BME280;47395;42.032;-8.634;2023-05-15T06:32:25;101539.94;;;16.46;71.14
61528;BME280;47395;42.032;-8.634;2023-05-15T06:34:26;101537.78;;;16.67;69.95
61528;BME280;47395;42.032;-8.634;2023-05-15T06:36:28;101542.72;;;16.88;68.57
61528;BME280;47395;42.032;-8.634;2023-05-15T06:38:29;101535.78;;;16.85;67.84
61528;BME280;47395;42.032;-8.634;2023-05-15T06:40:30;101532.44;;;17.11;67.44
61528;BME280;47395;42.032;-8.634;2023-05-15T06:42:31;101539.28;;;17.15;65.46
61528;BME280;47395;42.032;-8.634;2023-05-15T06:44:32;101531.34;;;17.28;66.40
61528;BME280;47395;42.032;-8.634;2023-05-15T06:46:33;101529.06;;;17.36;66.08
61528;BME280;47395;42.032;-8.634;2023-05-15T06:48:34;101534.59;;;17.33;66.12
61528;BME280;47395;42.032;-8.634;2023-05-15T06:50:35;101535.34;;;17.63;65.47
61528;BME280;47395;42.032;-8.634;2023-05-15T06:52:39;101527.38;;;17.75;63.61
61528;BME280;47395;42.032;-8.634;2023-05-15T06:54:40;101529.03;;;18.04;64.46
61528;BME280;47395;42.032;-8.634;2023-05-15T06:56:46;101535.31;;;18.31;63.62
61528;BME280;47395;42.032;-8.634;2023-05-15T06:58:48;101538.03;;;18.16;62.81
61528;BME280;47395;42.032;-8.634;2023-05-15T07:00:50;101536.38;;;18.41;62.46
61528;BME280;47395;42.032;-8.634;2023-05-15T07:02:50;101540.63;;;18.70;62.01
61528;BME280;47395;42.032;-8.634;2023-05-15T07:04:52;101550.22;;;18.72;61.46
61528;BME280;47395;42.032;-8.634;2023-05-15T07:06:54;101545.50;;;19.15;60.76
61528;BME280;47395;42.032;-8.634;2023-05-15T07:08:57;101548.06;;;19.41;60.70
61528;BME280;47395;42.032;-8.634;2023-05-15T07:10:58;101554.88;;;20.30;58.88
61528;BME280;47395;42.032;-8.634;2023-05-15T07:13:00;101554.94;;;20.87;56.63
61528;BME280;47395;42.032;-8.634;2023-05-15T07:15:04;101555.91;;;20.97;56.12
61528;BME280;47395;42.032;-8.634;2023-05-15T07:17:06;101549.56;;;21.21;55.01
61528;BME280;47395;42.032;-8.634;2023-05-15T07:19:07;101543.94;;;21.69;53.99
61528;BME280;47395;42.032;-8.634;2023-05-15T07:21:10;101549.78;;;22.59;51.95
61528;BME280;47395;42.032;-8.634;2023-05-15T07:23:11;101539.88;;;23.81;48.96
61528;BME280;47395;42.032;-8.634;2023-05-15T07:25:12;101543.66;;;25.22;45.33
61528;BME280;47395;42.032;-8.634;2023-05-15T07:27:14;101535.25;;;26.78;42.43
61528;BME280;47395;42.032;-8.634;2023-05-15T07:29:15;101541.13;;;27.08;41.38
61528;BME280;47395;42.032;-8.634;2023-05-15T07:31:16;101544.59;;;28.01;39.37
61528;BME280;47395;42.032;-8.634;2023-05-15T07:33:17;101554.00;;;28.47;38.59
61528;BME280;47395;42.032;-8.634;2023-05-15T07:35:18;101546.44;;;28.01;38.22
61528;BME280;47395;42.032;-8.634;2023-05-15T07:37:19;101544.09;;;28.71;36.58
61528;BME280;47395;42.032;-8.634;2023-05-15T07:39:20;101549.97;;;29.47;35.38
61528;BME280;47395;42.032;-8.634;2023-05-15T07:41:20;101543.97;;;29.60;34.91
61528;BME280;47395;42.032;-8.634;2023-05-15T07:43:22;101556.06;;;30.10;33.92
61528;BME280;47395;42.032;-8.634;2023-05-15T07:45:24;101552.34;;;29.73;34.19
61528;BME280;47395;42.032;-8.634;2023-05-15T07:47:27;101544.44;;;29.63;34.01
61528;BME280;47395;42.032;-8.634;2023-05-15T07:49:28;101552.28;;;30.50;33.14
61528;BME280;47395;42.032;-8.634;2023-05-15T07:51:31;101550.41;;;30.35;32.17
61528;BME280;47395;42.032;-8.634;2023-05-15T07:53:32;101549.75;;;30.33;32.83
61528;BME280;47395;42.032;-8.634;2023-05-15T07:55:33;101547.81;;;30.04;32.42
61528;BME280;47395;42.032;-8.634;2023-05-15T07:57:34;101541.66;;;30.55;32.17
61528;BME280;47395;42.032;-8.634;2023-05-15T07:59:35;101546.94;;;30.72;31.87
61528;BME280;47395;42.032;-8.634;2023-05-15T08:01:38;101546.47;;;30.68;31.26
61528;BME280;47395;42.032;-8.634;2023-05-15T08:03:38;101545.34;;;30.78;31.98
61528;BME280;47395;42.032;-8.634;2023-05-15T08:05:39;101554.94;;;31.10;30.44
61528;BME280;47395;42.032;-8.634;2023-05-15T08:07:40;101544.47;;;30.32;33.25
61528;BME280;47395;42.032;-8.634;2023-05-15T08:09:41;101556.75;;;31.25;32.00
61528;BME280;47395;42.032;-8.634;2023-05-15T08:11:42;101549.69;;;31.09;31.47
61528;BME280;47395;42.032;-8.634;2023-05-15T08:13:43;101556.66;;;31.55;30.88
61528;BME280;47395;42.032;-8.634;2023-05-15T08:15:49;101550.09;;;32.22;29.83
61528;BME280;47395;42.032;-8.634;2023-05-15T08:17:51;101546.03;;;32.95;27.99
61528;BME280;47395;42.032;-8.634;2023-05-15T08:19:52;101545.03;;;32.19;29.79
61528;BME280;47395;42.032;-8.634;2023-05-15T08:21:54;101551.44;;;32.81;28.46
61528;BME280;47395;42.032;-8.634;2023-05-15T08:23:55;101550.31;;;33.18;28.26
61528;BME280;47395;42.032;-8.634;2023-05-15T08:25:56;101553.72;;;33.54;27.87
61528;BME280;47395;42.032;-8.634;2023-05-15T08:27:57;101551.41;;;33.44;27.18
61528;BME280;47395;42.032;-8.634;2023-05-15T08:30:00;101547.63;;;34.06;25.96
61528;BME280;47395;42.032;-8.634;2023-05-15T08:32:04;101541.78;;;33.75;26.94
61528;BME280;47395;42.032;-8.634;2023-05-15T08:34:05;101552.03;;;34.00;25.64
61528;BME280;47395;42.032;-8.634;2023-05-15T08:36:08;101542.00;;;33.60;27.42
61528;BME280;47395;42.032;-8.634;2023-05-15T08:38:10;101543.81;;;33.32;27.07
61528;BME280;47395;42.032;-8.634;2023-05-15T08:40:11;101537.47;;;34.40;25.80
61528;BME280;47395;42.032;-8.634;2023-05-15T08:42:47;101545.31;;;34.03;26.97
61528;BME280;47395;42.032;-8.634;2023-05-15T08:44:48;101538.16;;;34.22;25.62
61528;BME280;47395;42.032;-8.634;2023-05-15T08:46:52;101530.44;;;34.71;24.86
61528;BME280;47395;42.032;-8.634;2023-05-15T08:48:53;101535.53;;;34.61;25.28
61528;BME280;47395;42.032;-8.634;2023-05-15T08:50:56;101538.88;;;35.41;24.02
61528;BME280;47395;42.032;-8.634;2023-05-15T08:52:58;101540.72;;;35.22;24.43
61528;BME280;47395;42.032;-8.634;2023-05-15T08:55:02;101539.03;;;35.97;24.21
61528;BME280;47395;42.032;-8.634;2023-05-15T08:57:03;101532.94;;;35.95;22.29
61528;BME280;47395;42.032;-8.634;2023-05-15T08:59:04;101533.91;;;34.92;24.73
61528;BME280;47395;42.032;-8.634;2023-05-15T09:01:06;101537.38;;;35.96;24.73
61528;BME280;47395;42.032;-8.634;2023-05-15T09:03:13;101534.47;;;35.91;23.97
61528;BME280;47395;42.032;-8.634;2023-05-15T09:05:14;101536.78;;;35.04;25.91
61528;BME280;47395;42.032;-8.634;2023-05-15T09:07:16;101536.00;;;36.05;24.07
61528;BME280;47395;42.032;-8.634;2023-05-15T09:09:18;101539.13;;;35.65;24.18
61528;BME280;47395;42.032;-8.634;2023-05-15T09:11:21;101538.16;;;35.78;23.98
61528;BME280;47395;42.032;-8.634;2023-05-15T09:13:23;101532.44;;;35.28;25.31
61528;BME280;47395;42.032;-8.634;2023-05-15T09:15:24;101535.06;;;35.10;24.89
61528;BME280;47395;42.032;-8.634;2023-05-15T09:17:25;101529.94;;;36.41;22.69
61528;BME280;47395;42.032;-8.634;2023-05-15T09:19:26;101531.25;;;36.19;23.52
61528;BME280;47395;42.032;-8.634;2023-05-15T09:21:28;101532.81;;;36.46;23.58
61528;BME280;47395;42.032;-8.634;2023-05-15T09:23:31;101534.66;;;36.34;22.53
61528;BME280;47395;42.032;-8.634;2023-05-15T09:25:41;101541.13;;;36.77;21.17
61528;BME280;47395;42.032;-8.634;2023-05-15T09:27:42;101536.91;;;36.93;20.28
61528;BME280;47395;42.032;-8.634;2023-05-15T09:29:43;101540.19;;;35.89;21.46
61528;BME280;47395;42.032;-8.634;2023-05-15T09:31:47;101548.88;;;35.54;22.79
61528;BME280;47395;42.032;-8.634;2023-05-15T09:33:58;101545.94;;;35.81;23.60
61528;BME280;47395;42.032;-8.634;2023-05-15T09:36:03;101543.78;;;35.32;22.97
61528;BME280;47395;42.032;-8.634;2023-05-15T09:38:09;101543.63;;;33.27;24.62
61528;BME280;47395;42.032;-8.634;2023-05-15T09:40:11;101548.84;;;34.37;23.61
61528;BME280;47395;42.032;-8.634;2023-05-15T09:42:13;101545.38;;;34.75;22.57
61528;BME280;47395;42.032;-8.634;2023-05-15T09:44:24;101539.47;;;33.58;24.69
61528;BME280;47395;42.032;-8.634;2023-05-15T09:46:25;101539.50;;;32.82;27.21
61528;BME280;47395;42.032;-8.634;2023-05-15T09:48:27;101537.59;;;33.72;26.30
61528;BME280;47395;42.032;-8.634;2023-05-15T09:50:36;101536.31;;;35.07;24.50
61528;BME280;47395;42.032;-8.634;2023-05-15T09:52:37;101532.22;;;35.30;23.62
61528;BME280;47395;42.032;-8.634;2023-05-15T09:54:39;101538.16;;;35.52;22.11
61528;BME280;47395;42.032;-8.634;2023-05-15T09:56:44;101528.22;;;36.02;21.32
61528;BME280;47395;42.032;-8.634;2023-05-15T09:58:57;101537.47;;;36.27;22.51
61528;BME280;47395;42.032;-8.634;2023-05-15T10:00:58;101530.13;;;34.27;24.59
61528;BME280;47395;42.032;-8.634;2023-05-15T10:03:04;101524.19;;;34.96;22.46
61528;BME280;47395;42.032;-8.634;2023-05-15T10:05:05;101534.00;;;33.65;24.91
61528;BME280;47395;42.032;-8.634;2023-05-15T10:07:07;101529.84;;;34.62;23.50
61528;BME280;47395;42.032;-8.634;2023-05-15T10:09:10;101529.41;;;34.59;25.05
61528;BME280;47395;42.032;-8.634;2023-05-15T10:11:12;101530.47;;;35.03;23.15
61528;BME280;47395;42.032;-8.634;2023-05-15T10:13:13;101532.31;;;35.93;23.20
61528;BME280;47395;42.032;-8.634;2023-05-15T10:15:20;101530.59;;;37.04;21.60
61528;BME280;47395;42.032;-8.634;2023-05-15T10:17:22;101522.66;;;34.68;23.98
61528;BME280;47395;42.032;-8.634;2023-05-15T10:19:24;101529.50;;;35.30;23.60
61528;BME280;47395;42.032;-8.634;2023-05-15T10:21:30;101516.56;;;35.05;22.61
61528;BME280;47395;42.032;-8.634;2023-05-15T10:23:33;101519.75;;;34.63;24.20
61528;BME280;47395;42.032;-8.634;2023-05-15T10:25:41;101515.03;;;35.16;22.75
61528;BME280;47395;42.032;-8.634;2023-05-15T10:27:46;101511.25;;;35.42;23.12
61528;BME280;47395;42.032;-8.634;2023-05-15T10:29:49;101512.88;;;35.76;21.70
61528;BME280;47395;42.032;-8.634;2023-05-15T10:31:51;101509.97;;;34.81;23.65
61528;BME280;47395;42.032;-8.634;2023-05-15T10:33:54;101509.72;;;36.35;22.11
61528;BME280;47395;42.032;-8.634;2023-05-15T10:35:55;101512.25;;;35.48;23.35
61528;BME280;47395;42.032;-8.634;2023-05-15T10:37:58;101508.25;;;35.76;21.80
61528;BME280;47395;42.032;-8.634;2023-05-15T10:40:03;101507.84;;;34.83;23.45
61528;BME280;47395;42.032;-8.634;2023-05-15T10:42:06;101506.72;;;35.30;23.49
61528;BME280;47395;42.032;-8.634;2023-05-15T10:44:10;101514.56;;;36.21;22.31
61528;BME280;47395;42.032;-8.634;2023-05-15T10:46:11;101503.63;;;36.52;22.91